Time;durP1;ratioP1;P1;durP2;ratioP2;P2;SDS_P1;SDS_P2;PMS_P1;PMS_P2;Temp;Humidity;BMP_temperature;BMP_pressure;BME280_temperature;BME280_humidity;BME280_pressure;Samples;Min_cycle;Max_cycle;Signal;HPM_P1;HPM_P2
2023/11/01 00:02:13;;;;;;;8.03;3.70;;;;;;;;;;5024354;28;20410;-64
2023/11/01 00:04:40;;;;;;;10.95;4.07;;;;;;;;;;5021607;28;20436;-64
2023/11/01 00:07:08;;;;;;;8.93;4.07;;;;;;;;;;5023316;28;20411;-64
2023/11/01 00:09:35;;;;;;;11.40;4.13;;;;;;;;;;5023820;28;20407;-63
2023/11/01 00:12:02;;;;;;;9.07;3.72;;;;;;;;;;5021377;28;20412;-63
2023/11/01 00:14:29;;;;;;;15.88;4.75;;;;;;;;;;5023535;28;20460;-64
2023/11/01 00:16:56;;;;;;;8.48;4.13;;;;;;;;;;5023739;28;20854;-64
2023/11/01 00:19:24;;;;;;;9.85;4.13;;;;;;;;;;5021345;28;20422;-63
2023/11/01 00:21:51;;;;;;;6.95;3.97;;;;;;;;;;5023456;28;20570;-64
2023/11/01 00:24:19;;;;;;;11.80;4.53;;;;;;;;;;5023517;28;20480;-63
2023/11/01 00:26:46;;;;;;;11.38;4.60;;;;;;;;;;5021342;28;20416;-63
2023/11/01 00:29:13;;;;;;;12.02;4.53;;;;;;;;;;5023364;28;20473;-64
2023/11/01 00:31:40;;;;;;;11.30;4.40;;;;;;;;;;5023328;28;20422;-64
2023/11/01 00:34:07;;;;;;;10.73;4.38;;;;;;;;;;5021210;28;20891;-63
2023/11/01 00:36:34;;;;;;;11.93;4.57;;;;;;;;;;5024305;28;20478;-64
2023/11/01 00:39:01;;;;;;;10.93;4.38;;;;;;;;;;5021840;28;20421;-64
2023/11/01 00:41:30;;;;;;;13.63;4.60;;;;;;;;;;5023873;28;20522;-64
2023/11/01 00:43:57;;;;;;;9.60;3.95;;;;;;;;;;5021862;28;20467;-63
2023/11/01 00:46:24;;;;;;;8.17;4.10;;;;;;;;;;5021251;28;20477;-64
2023/11/01 00:48:51;;;;;;;13.20;4.95;;;;;;;;;;5023548;28;20403;-64
2023/11/01 00:51:18;;;;;;;12.00;3.90;;;;;;;;;;5021251;28;20442;-64
2023/11/01 00:53:45;;;;;;;13.65;4.55;;;;;;;;;;5021795;28;20408;-64
2023/11/01 00:56:12;;;;;;;9.20;4.22;;;;;;;;;;5023644;28;20422;-63
2023/11/01 00:58:40;;;;;;;8.82;4.03;;;;;;;;;;5021144;28;20426;-64
2023/11/01 01:01:07;;;;;;;10.57;4.57;;;;;;;;;;5021469;28;20473;-64
2023/11/01 01:03:34;;;;;;;10.63;4.70;;;;;;;;;;5022757;28;20914;-63
2023/11/01 01:06:01;;;;;;;11.50;5.00;;;;;;;;;;5023336;28;20488;-64
2023/11/01 01:08:28;;;;;;;10.95;4.70;;;;;;;;;;5021912;28;20421;-64
2023/11/01 01:10:55;;;;;;;10.90;4.43;;;;;;;;;;5020753;28;20470;-64
2023/11/01 01:13:22;;;;;;;11.27;4.55;;;;;;;;;;5023208;28;20406;-63
2023/11/01 01:15:51;;;;;;;11.35;5.00;;;;;;;;;;5021377;28;20409;-63
2023/11/01 01:18:20;;;;;;;11.50;4.57;;;;;;;;;;5020180;28;20911;-63
2023/11/01 01:20:47;;;;;;;12.88;4.50;;;;;;;;;;5022754;28;20446;-64
2023/11/01 01:23:14;;;;;;;13.20;4.80;;;;;;;;;;5021941;28;20418;-63
2023/11/01 01:25:41;;;;;;;14.93;4.93;;;;;;;;;;5020227;28;20428;-63
2023/11/01 01:28:08;;;;;;;12.27;4.20;;;;;;;;;;5022649;28;20495;-64
2023/11/01 01:30:35;;;;;;;9.80;4.60;;;;;;;;;;5021489;28;20412;-63
2023/11/01 01:33:04;;;;;;;10.63;4.00;;;;;;;;;;5020165;28;20502;-64
2023/11/01 01:35:30;;;;;;;7.32;4.03;;;;;;;;;;5015344;28;20911;-64
2023/11/01 01:37:57;;;;;;;10.90;4.07;;;;;;;;;;5021328;28;20549;-64
2023/11/01 01:40:24;;;;;;;10.48;4.88;;;;;;;;;;5022910;28;20462;-64
2023/11/01 01:42:51;;;;;;;13.88;4.55;;;;;;;;;;5016466;28;20409;-64
2023/11/01 01:45:18;;;;;;;9.23;3.90;;;;;;;;;;5013623;28;20920;-64
2023/11/01 01:47:46;;;;;;;13.23;4.32;;;;;;;;;;5019773;28;20445;-63
2023/11/01 01:50:14;;;;;;;10.32;4.03;;;;;;;;;;5017591;28;20424;-64
2023/11/01 01:52:42;;;;;;;9.85;3.70;;;;;;;;;;5013715;28;20424;-64
2023/11/01 01:55:10;;;;;;;8.98;3.90;;;;;;;;;;5011960;28;20979;-64
2023/11/01 01:57:37;;;;;;;7.93;3.33;;;;;;;;;;5017338;28;20417;-63
2023/11/01 02:00:07;;;;;;;9.80;3.60;;;;;;;;;;5021278;28;20423;-63
2023/11/01 02:02:34;;;;;;;9.38;3.60;;;;;;;;;;5021224;28;20462;-63
2023/11/01 02:05:05;;;;;;;7.63;3.33;;;;;;;;;;5024770;28;20448;-63
2023/11/01 02:07:34;;;;;;;9.65;3.30;;;;;;;;;;5018877;28;20421;-62
2023/11/01 02:10:02;;;;;;;11.48;3.40;;;;;;;;;;5023196;28;20416;-64
2023/11/01 02:12:29;;;;;;;6.80;3.20;;;;;;;;;;5025175;28;20511;-63
2023/11/01 02:14:56;;;;;;;10.52;3.17;;;;;;;;;;5019938;28;20899;-62
2023/11/01 02:17:23;;;;;;;8.73;3.25;;;;;;;;;;5024137;28;20452;-63
2023/11/01 02:19:50;;;;;;;7.00;2.60;;;;;;;;;;5023932;28;20411;-62
2023/11/01 02:22:17;;;;;;;7.50;2.90;;;;;;;;;;5020155;28;20468;-62
2023/11/01 02:24:46;;;;;;;9.45;2.97;;;;;;;;;;5022480;28;20412;-64
2023/11/01 02:27:13;;;;;;;9.93;3.30;;;;;;;;;;5021158;28;20476;-63
2023/11/01 02:29:40;;;;;;;10.45;3.38;;;;;;;;;;5021208;28;20410;-63
2023/11/01 02:32:08;;;;;;;9.77;3.40;;;;;;;;;;5017659;28;20975;-63
2023/11/01 02:34:35;;;;;;;10.07;3.25;;;;;;;;;;5026361;28;20411;-63
2023/11/01 02:37:02;;;;;;;7.45;3.13;;;;;;;;;;5021049;28;20412;-63
2023/11/01 02:39:29;;;;;;;6.95;3.20;;;;;;;;;;5019012;28;20417;-63
2023/11/01 02:41:58;;;;;;;7.95;2.97;;;;;;;;;;5015670;28;20448;-61
2023/11/01 02:44:25;;;;;;;6.18;3.25;;;;;;;;;;5016477;28;20928;-61
2023/11/01 02:46:52;;;;;;;7.75;3.70;;;;;;;;;;5021376;28;20431;-63
2023/11/01 02:49:19;;;;;;;7.53;3.38;;;;;;;;;;5017584;28;20415;-63
2023/11/01 02:51:46;;;;;;;14.10;3.95;;;;;;;;;;5020757;28;20473;-63
2023/11/01 02:54:13;;;;;;;7.28;3.25;;;;;;;;;;5018228;28;20895;-63
2023/11/01 02:56:40;;;;;;;8.18;2.80;;;;;;;;;;5019133;28;20838;-63
2023/11/01 02:59:08;;;;;;;7.63;3.00;;;;;;;;;;5019897;28;20528;-63
2023/11/01 03:01:36;;;;;;;4.57;2.88;;;;;;;;;;5018108;28;20440;-62
2023/11/01 03:04:03;;;;;;;7.13;2.90;;;;;;;;;;5020928;28;20427;-63
2023/11/01 03:06:30;;;;;;;9.43;3.30;;;;;;;;;;5017224;28;21145;-63
2023/11/01 03:08:57;;;;;;;8.88;2.80;;;;;;;;;;5009569;28;20480;-63
2023/11/01 03:11:24;;;;;;;6.20;3.10;;;;;;;;;;5020975;28;20473;-63
2023/11/01 03:13:51;;;;;;;7.03;3.00;;;;;;;;;;5018975;28;20811;-61
2023/11/01 03:16:19;;;;;;;6.57;2.63;;;;;;;;;;5018622;28;20413;-62
2023/11/01 03:18:46;;;;;;;8.23;3.00;;;;;;;;;;5017111;28;20515;-63
2023/11/01 03:21:13;;;;;;;7.97;2.88;;;;;;;;;;5018058;28;21008;-63
2023/11/01 03:23:40;;;;;;;6.43;2.55;;;;;;;;;;5020730;28;20928;-63
2023/11/01 03:26:07;;;;;;;8.82;2.80;;;;;;;;;;5017367;28;20474;-63
2023/11/01 03:28:34;;;;;;;7.80;2.67;;;;;;;;;;5019686;28;20425;-63
2023/11/01 03:31:01;;;;;;;7.93;2.63;;;;;;;;;;5018297;28;20755;-60
2023/11/01 03:33:30;;;;;;;10.52;2.85;;;;;;;;;;5019586;28;20416;-61
2023/11/01 03:35:57;;;;;;;6.43;2.40;;;;;;;;;;5023640;28;20419;-62
2023/11/01 03:38:24;;;;;;;6.47;2.25;;;;;;;;;;5018343;28;20839;-62
2023/11/01 03:40:51;;;;;;;5.97;2.70;;;;;;;;;;5021573;28;20473;-62
2023/11/01 03:43:18;;;;;;;4.93;2.22;;;;;;;;;;5021368;28;20414;-63
2023/11/01 03:45:44;;;;;;;4.35;2.20;;;;;;;;;;5020766;28;20488;-62
2023/11/01 03:48:12;;;;;;;7.35;2.55;;;;;;;;;;5018181;28;20462;-62
2023/11/01 03:50:40;;;;;;;5.70;2.20;;;;;;;;;;5020152;28;20407;-61
2023/11/01 03:53:08;;;;;;;6.13;2.50;;;;;;;;;;5020582;28;20906;-62
2023/11/01 03:55:35;;;;;;;5.32;2.50;;;;;;;;;;5018220;28;20412;-60
2023/11/01 03:58:02;;;;;;;6.25;2.40;;;;;;;;;;5020027;28;20434;-62
2023/11/01 04:00:29;;;;;;;7.45;2.63;;;;;;;;;;5020709;28;20415;-62
2023/11/01 04:02:56;;;;;;;5.00;3.17;;;;;;;;;;5019572;28;20496;-62
2023/11/01 04:05:23;;;;;;;5.80;2.65;;;;;;;;;;5019873;28;20481;-61
2023/11/01 04:07:51;;;;;;;6.20;2.67;;;;;;;;;;5019940;28;20410;-62
2023/11/01 04:10:18;;;;;;;6.25;2.42;;;;;;;;;;5017880;28;20413;-60
2023/11/01 04:12:45;;;;;;;6.32;2.28;;;;;;;;;;5019983;28;20411;-61
2023/11/01 04:15:13;;;;;;;4.53;2.23;;;;;;;;;;5020326;28;20969;-60
2023/11/01 04:17:40;;;;;;;6.03;2.30;;;;;;;;;;5017934;28;20497;-61
2023/11/01 04:20:08;;;;;;;4.85;1.98;;;;;;;;;;5020344;28;20411;-61
2023/11/01 04:22:36;;;;;;;4.32;2.20;;;;;;;;;;5023940;28;20672;-62
2023/11/01 04:25:06;;;;;;;4.65;1.95;;;;;;;;;;5021533;28;20416;-62
2023/11/01 04:27:35;;;;;;;3.97;1.90;;;;;;;;;;5022939;28;20423;-60
2023/11/01 04:30:04;;;;;;;5.88;2.08;;;;;;;;;;5024035;28;20410;-62
2023/11/01 04:32:31;;;;;;;5.65;1.80;;;;;;;;;;5021608;28;20507;-60
2023/11/01 04:34:58;;;;;;;5.40;1.88;;;;;;;;;;5023924;28;20510;-62
2023/11/01 04:37:25;;;;;;;5.10;1.83;;;;;;;;;;5021079;28;20516;-62
2023/11/01 04:39:52;;;;;;;5.68;1.90;;;;;;;;;;5018154;28;20474;-61
2023/11/01 04:42:20;;;;;;;4.68;1.88;;;;;;;;;;5022499;28;20407;-60
2023/11/01 04:44:47;;;;;;;2.92;1.83;;;;;;;;;;5024021;28;20407;-61
2023/11/01 04:47:14;;;;;;;3.07;1.60;;;;;;;;;;5017553;28;20482;-63
2023/11/01 04:49:41;;;;;;;3.58;1.65;;;;;;;;;;5022627;28;20403;-61
2023/11/01 04:52:08;;;;;;;4.25;2.00;;;;;;;;;;5023650;28;20411;-62
2023/11/01 04:54:35;;;;;;;3.90;1.88;;;;;;;;;;5017394;28;20413;-62
2023/11/01 04:57:03;;;;;;;2.55;1.63;;;;;;;;;;5022417;28;20808;-62
2023/11/01 04:59:31;;;;;;;3.65;2.00;;;;;;;;;;5023397;28;20422;-60
2023/11/01 05:01:59;;;;;;;3.20;1.77;;;;;;;;;;5020823;28;20891;-62
2023/11/01 05:04:26;;;;;;;4.53;1.98;;;;;;;;;;5022005;28;20468;-62
2023/11/01 05:06:53;;;;;;;4.32;1.90;;;;;;;;;;5022869;28;20430;-62
2023/11/01 05:09:20;;;;;;;2.95;1.98;;;;;;;;;;5018988;28;20419;-62
2023/11/01 05:11:47;;;;;;;3.57;1.83;;;;;;;;;;5022282;28;20434;-62
2023/11/01 05:14:15;;;;;;;5.70;2.08;;;;;;;;;;5023244;28;20499;-60
2023/11/01 05:16:43;;;;;;;3.80;1.98;;;;;;;;;;5023365;28;20453;-62
2023/11/01 05:19:10;;;;;;;4.10;2.00;;;;;;;;;;5022749;28;20441;-62
2023/11/01 05:21:38;;;;;;;3.90;2.10;;;;;;;;;;5024051;28;20415;-63
2023/11/01 05:24:05;;;;;;;2.97;1.80;;;;;;;;;;5016726;28;20409;-63
2023/11/01 05:26:34;;;;;;;5.38;1.90;;;;;;;;;;5023953;28;20791;-62
2023/11/01 05:29:01;;;;;;;4.43;1.70;;;;;;;;;;5023748;28;20782;-63
2023/11/01 05:31:28;;;;;;;2.53;1.80;;;;;;;;;;5017616;28;20462;-62
2023/11/01 05:33:56;;;;;;;2.88;1.73;;;;;;;;;;5024373;28;20409;-64
2023/11/01 05:36:24;;;;;;;4.07;2.15;;;;;;;;;;5020587;28;20413;-63
2023/11/01 05:38:51;;;;;;;4.88;1.98;;;;;;;;;;5017537;28;20415;-64
2023/11/01 05:41:18;;;;;;;3.95;1.77;;;;;;;;;;5021255;28;20531;-63
2023/11/01 05:43:45;;;;;;;2.78;1.75;;;;;;;;;;5020513;28;20413;-63
2023/11/01 05:46:13;;;;;;;3.90;1.65;;;;;;;;;;5022714;28;20431;-62
2023/11/01 05:48:39;;;;;;;6.13;2.00;;;;;;;;;;5020945;28;20453;-64
2023/11/01 05:51:08;;;;;;;4.43;1.80;;;;;;;;;;5020390;28;20903;-63
2023/11/01 05:53:35;;;;;;;3.58;2.00;;;;;;;;;;5016144;28;20413;-63
2023/11/01 05:56:02;;;;;;;2.83;1.70;;;;;;;;;;5023236;28;20481;-63
2023/11/01 05:58:30;;;;;;;6.47;2.10;;;;;;;;;;5022544;28;20891;-64
2023/11/01 06:00:57;;;;;;;4.82;1.92;;;;;;;;;;5022759;28;20814;-62
2023/11/01 06:03:25;;;;;;;4.70;1.98;;;;;;;;;;5020657;28;20416;-63
2023/11/01 06:05:57;;;;;;;6.60;2.38;;;;;;;;;;5023083;28;20437;-63
2023/11/01 06:08:25;;;;;;;4.07;2.25;;;;;;;;;;5022058;28;20471;-62
2023/11/01 06:10:54;;;;;;;5.47;2.50;;;;;;;;;;5020682;28;20417;-62
2023/11/01 06:13:21;;;;;;;7.20;2.58;;;;;;;;;;5022357;28;20418;-63
2023/11/01 06:15:49;;;;;;;4.88;2.67;;;;;;;;;;5020245;28;20418;-62
2023/11/01 06:18:17;;;;;;;8.48;2.70;;;;;;;;;;5019864;28;20416;-62
2023/11/01 06:20:44;;;;;;;7.70;2.42;;;;;;;;;;5022524;28;20419;-64
2023/11/01 06:23:11;;;;;;;6.65;2.50;;;;;;;;;;5020190;28;20409;-64
2023/11/01 06:25:40;;;;;;;7.65;2.55;;;;;;;;;;5020098;28;20408;-63
2023/11/01 06:28:08;;;;;;;6.25;2.45;;;;;;;;;;5022085;28;20532;-64
2023/11/01 06:30:35;;;;;;;9.90;2.80;;;;;;;;;;5020384;28;20416;-63
2023/11/01 06:33:02;;;;;;;6.07;2.20;;;;;;;;;;5019641;28;20409;-64
2023/11/01 06:35:29;;;;;;;8.00;2.30;;;;;;;;;;5016924;28;20423;-64
2023/11/01 06:37:56;;;;;;;4.95;2.42;;;;;;;;;;5018795;28;20475;-63
2023/11/01 06:40:23;;;;;;;8.63;2.35;;;;;;;;;;5015702;28;20456;-63
2023/11/01 06:42:53;;;;;;;7.93;2.30;;;;;;;;;;5021378;28;20418;-64
2023/11/01 06:45:20;;;;;;;8.17;2.10;;;;;;;;;;5018285;28;20414;-64
2023/11/01 06:47:47;;;;;;;6.65;2.53;;;;;;;;;;5020852;28;20427;-64
2023/11/01 06:50:14;;;;;;;5.38;2.05;;;;;;;;;;5018782;28;20421;-64
2023/11/01 06:52:44;;;;;;;6.75;1.95;;;;;;;;;;5019448;28;20428;-64
2023/11/01 06:55:11;;;;;;;6.95;2.25;;;;;;;;;;5018115;28;20501;-64
2023/11/01 06:57:38;;;;;;;7.32;2.25;;;;;;;;;;5018906;28;20471;-64
2023/11/01 07:00:08;;;;;;;5.57;2.25;;;;;;;;;;5020292;28;20414;-63
2023/11/01 07:02:35;;;;;;;8.75;2.50;;;;;;;;;;5017253;28;20413;-63
2023/11/01 07:05:04;;;;;;;7.05;2.20;;;;;;;;;;5017380;28;20439;-63
2023/11/01 07:07:31;;;;;;;7.77;2.50;;;;;;;;;;5019278;28;20432;-64
2023/11/01 07:09:58;;;;;;;6.90;2.28;;;;;;;;;;5021293;28;20909;-62
2023/11/01 07:12:25;;;;;;;10.32;2.40;;;;;;;;;;5015140;28;20413;-65
2023/11/01 07:14:52;;;;;;;11.35;2.35;;;;;;;;;;5019518;28;20419;-63
2023/11/01 07:17:21;;;;;;;6.65;2.47;;;;;;;;;;5017822;28;20824;-64
2023/11/01 07:19:48;;;;;;;5.93;2.15;;;;;;;;;;5011618;28;20478;-62
2023/11/01 07:22:15;;;;;;;6.85;1.92;;;;;;;;;;5019848;28;20987;-63
2023/11/01 07:24:42;;;;;;;8.77;2.05;;;;;;;;;;5017847;28;20413;-63
2023/11/01 07:27:09;;;;;;;6.20;1.83;;;;;;;;;;5014809;28;20563;-63
2023/11/01 07:29:36;;;;;;;6.90;1.80;;;;;;;;;;5019345;28;20471;-64
2023/11/01 07:32:03;;;;;;;7.07;1.93;;;;;;;;;;5018869;28;20484;-64
2023/11/01 07:34:30;;;;;;;7.47;1.65;;;;;;;;;;5017884;28;20463;-64
2023/11/01 07:36:57;;;;;;;6.68;1.70;;;;;;;;;;5019944;28;20421;-64
2023/11/01 07:39:24;;;;;;;9.18;1.90;;;;;;;;;;5019444;28;20883;-61
2023/11/01 07:41:51;;;;;;;7.22;1.88;;;;;;;;;;5020843;28;20407;-65
2023/11/01 07:44:19;;;;;;;7.55;1.73;;;;;;;;;;5018854;28;20413;-64
2023/11/01 07:46:46;;;;;;;7.32;1.90;;;;;;;;;;5018920;28;20436;-64
2023/11/01 07:49:13;;;;;;;7.25;2.05;;;;;;;;;;5021128;28;20971;-64
2023/11/01 07:51:42;;;;;;;4.57;1.70;;;;;;;;;;5019062;28;20413;-64
2023/11/01 07:54:09;;;;;;;6.53;1.70;;;;;;;;;;5018552;28;20416;-64
2023/11/01 07:56:36;;;;;;;6.47;1.80;;;;;;;;;;5023915;28;20498;-64
2023/11/01 07:59:04;;;;;;;4.25;1.90;;;;;;;;;;5022860;28;20450;-62
2023/11/01 08:01:31;;;;;;;7.90;2.10;;;;;;;;;;5022514;28;20463;-62
2023/11/01 08:03:58;;;;;;;5.00;1.85;;;;;;;;;;5024842;28;20487;-62
2023/11/01 08:06:25;;;;;;;6.68;2.00;;;;;;;;;;5021763;28;20469;-62
2023/11/01 08:08:54;;;;;;;6.57;1.70;;;;;;;;;;5025180;28;20446;-63
2023/11/01 08:11:21;;;;;;;5.35;1.75;;;;;;;;;;5021606;28;20416;-63
2023/11/01 08:13:48;;;;;;;7.25;1.52;;;;;;;;;;5023878;28;20484;-62
2023/11/01 08:16:15;;;;;;;4.00;1.58;;;;;;;;;;5023461;28;20465;-62
2023/11/01 08:18:42;;;;;;;5.72;1.73;;;;;;;;;;5021758;28;20413;-62
2023/11/01 08:21:09;;;;;;;5.88;1.60;;;;;;;;;;5023800;28;20411;-63
2023/11/01 08:23:36;;;;;;;4.80;1.45;;;;;;;;;;5023454;28;20418;-61
2023/11/01 08:26:05;;;;;;;4.55;1.55;;;;;;;;;;5018394;28;20424;-64
2023/11/01 08:28:32;;;;;;;5.85;1.70;;;;;;;;;;5019642;28;20468;-64
2023/11/01 08:30:59;;;;;;;5.43;1.70;;;;;;;;;;5022886;28;20441;-63
2023/11/01 08:33:27;;;;;;;8.20;2.10;;;;;;;;;;5017704;28;20430;-63
2023/11/01 08:35:54;;;;;;;5.70;1.95;;;;;;;;;;5017718;28;20468;-63
2023/11/01 08:38:21;;;;;;;8.03;2.20;;;;;;;;;;5021994;28;20906;-63
2023/11/01 08:40:48;;;;;;;6.68;1.83;;;;;;;;;;5013276;28;20534;-63
2023/11/01 08:43:17;;;;;;;4.88;1.60;;;;;;;;;;5022961;28;20773;-63
2023/11/01 08:45:44;;;;;;;8.10;2.03;;;;;;;;;;5015174;28;20517;-62
2023/11/01 08:48:12;;;;;;;5.72;1.70;;;;;;;;;;5022690;28;20968;-63
2023/11/01 08:50:39;;;;;;;5.88;1.85;;;;;;;;;;5017297;28;20567;-62
2023/11/01 08:53:07;;;;;;;6.60;1.60;;;;;;;;;;5023858;28;20516;-62
2023/11/01 08:55:35;;;;;;;6.57;1.85;;;;;;;;;;5020156;28;20474;-62
2023/11/01 08:58:02;;;;;;;5.45;1.63;;;;;;;;;;5024693;28;20419;-64
2023/11/01 09:00:32;;;;;;;7.88;2.00;;;;;;;;;;5024938;28;20509;-64
2023/11/01 09:02:59;;;;;;;6.70;1.50;;;;;;;;;;5027298;28;20464;-64
2023/11/01 09:05:26;;;;;;;6.68;1.50;;;;;;;;;;5019189;28;20819;-65
2023/11/01 09:07:54;;;;;;;3.83;1.35;;;;;;;;;;5021957;28;20489;-66
2023/11/01 09:10:21;;;;;;;4.00;1.42;;;;;;;;;;5019922;28;20411;-64
2023/11/01 09:12:50;;;;;;;6.72;1.30;;;;;;;;;;5021173;28;20417;-63
2023/11/01 09:15:17;;;;;;;6.05;1.60;;;;;;;;;;5020823;28;20457;-63
2023/11/01 09:17:45;;;;;;;5.18;1.60;;;;;;;;;;5024075;28;20442;-63
2023/11/01 09:20:12;;;;;;;7.45;1.50;;;;;;;;;;5021289;28;20421;-63
2023/11/01 09:22:49;;;;;;;5.07;1.60;;;;;;;;;;5020989;28;21089;-63
2023/11/01 09:25:16;;;;;;;5.25;1.27;;;;;;;;;;5018040;28;20953;-64
2023/11/01 09:27:43;;;;;;;6.10;1.52;;;;;;;;;;5016700;28;20436;-65
2023/11/01 09:30:10;;;;;;;6.80;1.50;;;;;;;;;;5020889;28;20423;-64
2023/11/01 09:32:38;;;;;;;7.25;1.67;;;;;;;;;;5020345;28;20524;-63
2023/11/01 09:35:08;;;;;;;4.68;1.23;;;;;;;;;;5010895;28;20488;-64
2023/11/01 09:37:35;;;;;;;8.38;1.90;;;;;;;;;;5017702;28;20511;-63
2023/11/01 09:40:03;;;;;;;6.85;1.60;;;;;;;;;;5020646;28;20775;-64
2023/11/01 09:42:30;;;;;;;5.85;1.20;;;;;;;;;;5018159;28;20428;-64
2023/11/01 09:44:58;;;;;;;6.23;1.53;;;;;;;;;;5017380;28;20497;-64
2023/11/01 09:47:26;;;;;;;4.33;1.37;;;;;;;;;;5026018;28;20446;-64
2023/11/01 09:49:55;;;;;;;4.35;1.42;;;;;;;;;;5023211;28;20953;-64
2023/11/01 09:52:23;;;;;;;6.72;1.60;;;;;;;;;;5015876;28;20537;-64
2023/11/01 09:54:51;;;;;;;3.35;1.20;;;;;;;;;;5018525;28;20453;-65
2023/11/01 09:57:19;;;;;;;6.53;1.50;;;;;;;;;;5018652;28;20935;-63
2023/11/01 09:59:46;;;;;;;6.32;1.35;;;;;;;;;;5019792;28;20417;-63
2023/11/01 10:02:13;;;;;;;7.13;1.67;;;;;;;;;;5020292;28;20422;-63
2023/11/01 10:04:40;;;;;;;4.70;1.00;;;;;;;;;;5020941;28;20863;-64
2023/11/01 10:07:09;;;;;;;6.13;1.30;;;;;;;;;;5021524;28;20865;-63
2023/11/01 10:09:38;;;;;;;5.13;1.20;;;;;;;;;;5022893;28;20508;-63
2023/11/01 10:12:08;;;;;;;5.70;1.48;;;;;;;;;;5016858;28;20424;-65
2023/11/01 10:14:35;;;;;;;6.72;1.58;;;;;;;;;;5018179;28;20472;-63
2023/11/01 10:17:03;;;;;;;5.30;1.03;;;;;;;;;;5020762;28;20490;-63
2023/11/01 10:19:30;;;;;;;6.38;1.52;;;;;;;;;;5021131;28;20407;-64
2023/11/01 10:21:58;;;;;;;4.82;1.27;;;;;;;;;;5019801;28;20465;-64
2023/11/01 10:24:25;;;;;;;4.28;1.15;;;;;;;;;;5019205;28;20830;-63
2023/11/01 10:26:54;;;;;;;5.80;1.47;;;;;;;;;;5021568;28;20459;-63
2023/11/01 10:29:21;;;;;;;5.77;1.50;;;;;;;;;;5018991;28;20438;-63
2023/11/01 10:31:52;;;;;;;4.03;1.40;;;;;;;;;;5024403;28;20510;-63
2023/11/01 10:34:20;;;;;;;5.97;1.45;;;;;;;;;;5020417;28;20486;-64
2023/11/01 10:36:51;;;;;;;6.13;1.45;;;;;;;;;;5021988;28;20412;-64
2023/11/01 10:39:18;;;;;;;4.75;1.40;;;;;;;;;;5017500;28;20543;-64
2023/11/01 10:41:48;;;;;;;4.47;1.40;;;;;;;;;;5019336;28;20447;-63
2023/11/01 10:44:17;;;;;;;5.50;1.50;;;;;;;;;;5018855;28;20465;-64
2023/11/01 10:46:44;;;;;;;6.82;1.50;;;;;;;;;;5021143;28;20410;-64
2023/11/01 10:49:11;;;;;;;3.80;1.30;;;;;;;;;;5021130;28;20427;-64
2023/11/01 10:51:39;;;;;;;4.53;1.30;;;;;;;;;;5023835;28;20416;-64
2023/11/01 10:54:06;;;;;;;7.32;1.58;;;;;;;;;;5015151;28;20498;-64
2023/11/01 10:56:33;;;;;;;5.93;1.60;;;;;;;;;;5019831;28;20955;-64
2023/11/01 10:59:04;;;;;;;4.82;1.45;;;;;;;;;;5020781;28;20406;-64
2023/11/01 11:01:35;;;;;;;6.78;1.45;;;;;;;;;;5015647;28;20465;-64
2023/11/01 11:04:10;;;;;;;4.78;1.38;;;;;;;;;;5018822;28;20417;-64
2023/11/01 11:06:40;;;;;;;7.63;1.58;;;;;;;;;;5015486;28;20417;-64
2023/11/01 11:09:21;;;;;;;7.97;1.70;;;;;;;;;;5019158;28;20438;-63
2023/11/01 11:12:03;;;;;;;6.13;1.38;;;;;;;;;;5017664;28;20450;-64
2023/11/01 11:14:43;;;;;;;3.78;1.30;;;;;;;;;;5010430;28;20420;-64
2023/11/01 11:17:13;;;;;;;6.30;1.52;;;;;;;;;;5015174;28;20420;-64
2023/11/01 11:19:59;;;;;;;5.28;1.25;;;;;;;;;;5019586;28;20423;-64
2023/11/01 11:22:26;;;;;;;5.22;1.15;;;;;;;;;;5018521;28;20982;-64
2023/11/01 11:24:57;;;;;;;9.45;1.70;;;;;;;;;;5018427;28;20416;-64
2023/11/01 11:27:42;;;;;;;4.68;1.52;;;;;;;;;;5020237;28;20419;-64
2023/11/01 11:30:09;;;;;;;8.50;1.58;;;;;;;;;;5014239;28;20839;-63
2023/11/01 11:32:38;;;;;;;7.10;1.42;;;;;;;;;;5019689;28;20444;-67
2023/11/01 11:35:22;;;;;;;4.38;1.58;;;;;;;;;;5024600;28;20415;-62
2023/11/01 11:37:49;;;;;;;7.43;1.48;;;;;;;;;;5021579;28;20422;-63
2023/11/01 11:40:16;;;;;;;6.35;1.40;;;;;;;;;;5024168;28;20886;-63
2023/11/01 11:42:52;;;;;;;6.10;1.35;;;;;;;;;;5023575;28;20434;-63
2023/11/01 11:45:26;;;;;;;6.78;1.52;;;;;;;;;;5019694;28;20471;-63
2023/11/01 11:47:55;;;;;;;5.03;1.30;;;;;;;;;;5022314;28;20465;-63
2023/11/01 11:50:22;;;;;;;5.90;1.50;;;;;;;;;;5024328;28;20518;-63
2023/11/01 11:52:49;;;;;;;7.00;1.60;;;;;;;;;;5023177;28;20411;-63
2023/11/01 11:55:16;;;;;;;7.43;1.80;;;;;;;;;;5021303;28;20806;-63
2023/11/01 11:57:43;;;;;;;8.27;1.83;;;;;;;;;;5018433;28;20783;-63
2023/11/01 12:00:12;;;;;;;7.20;1.52;;;;;;;;;;5023117;28;20457;-68
2023/11/01 12:02:39;;;;;;;12.68;3.50;;;;;;;;;;5024009;28;20537;-68
2023/11/01 12:05:08;;;;;;;8.27;3.35;;;;;;;;;;5024121;28;20414;-68
2023/11/01 12:07:47;;;;;;;11.77;2.92;;;;;;;;;;5021944;28;20793;-71
2023/11/01 12:13:01;;;;;;;7.78;2.40;;;;;;;;;;4996495;28;20458;-72
2023/11/01 12:15:29;;;;;;;10.25;2.95;;;;;;;;;;5023319;28;20422;-69
2023/11/01 12:18:11;;;;;;;7.50;1.75;;;;;;;;;;5021145;28;20417;-69
2023/11/01 12:20:39;;;;;;;8.68;2.45;;;;;;;;;;5022043;28;20428;-68
2023/11/01 12:23:07;;;;;;;9.57;2.50;;;;;;;;;;5026411;28;20415;-67
2023/11/01 12:25:34;;;;;;;8.70;1.70;;;;;;;;;;5027939;28;20424;-68
2023/11/01 12:28:01;;;;;;;8.53;2.03;;;;;;;;;;5026278;28;20850;-70
2023/11/01 12:30:28;;;;;;;9.05;2.00;;;;;;;;;;5021657;28;20416;-69
2023/11/01 12:32:56;;;;;;;6.78;1.80;;;;;;;;;;5021863;28;20484;-68
2023/11/01 12:35:23;;;;;;;8.75;1.77;;;;;;;;;;5021079;28;20422;-69
2023/11/01 12:37:51;;;;;;;6.80;1.80;;;;;;;;;;5022005;28;20412;-69
2023/11/01 12:40:20;;;;;;;6.17;1.77;;;;;;;;;;5021309;28;20808;-69
2023/11/01 12:42:49;;;;;;;7.05;1.63;;;;;;;;;;5022935;28;20941;-69
2023/11/01 12:45:17;;;;;;;8.43;1.95;;;;;;;;;;5021214;28;20772;-69
2023/11/01 12:47:44;;;;;;;7.68;2.00;;;;;;;;;;5020743;28;20424;-68
2023/11/01 12:50:15;;;;;;;5.07;1.60;;;;;;;;;;5023448;28;20525;-69
2023/11/01 12:52:42;;;;;;;9.18;2.00;;;;;;;;;;5022686;28;20444;-69
2023/11/01 12:55:11;;;;;;;6.67;2.30;;;;;;;;;;5026701;28;20422;-69
2023/11/01 12:57:38;;;;;;;6.10;1.98;;;;;;;;;;5020580;28;20416;-69
2023/11/01 13:00:08;;;;;;;7.68;1.80;;;;;;;;;;5020437;28;20444;-69
2023/11/01 13:02:35;;;;;;;6.70;1.85;;;;;;;;;;5019539;28;20423;-69
2023/11/01 13:05:02;;;;;;;6.90;1.98;;;;;;;;;;5020081;28;20417;-69
2023/11/01 13:07:30;;;;;;;5.45;1.50;;;;;;;;;;5023286;28;20425;-69
2023/11/01 13:09:57;;;;;;;9.45;1.85;;;;;;;;;;5023064;28;20509;-69
2023/11/01 13:12:26;;;;;;;8.82;1.60;;;;;;;;;;5020686;28;20420;-69
2023/11/01 13:14:54;;;;;;;6.95;2.00;;;;;;;;;;5020998;28;20425;-69
2023/11/01 13:17:21;;;;;;;6.00;1.60;;;;;;;;;;5022582;28;20423;-68
2023/11/01 13:19:48;;;;;;;7.57;2.00;;;;;;;;;;5020442;28;20814;-68
2023/11/01 13:22:15;;;;;;;9.68;1.90;;;;;;;;;;5020630;28;20464;-68
2023/11/01 13:24:42;;;;;;;5.10;1.52;;;;;;;;;;5022614;28;20411;-68
2023/11/01 13:27:09;;;;;;;7.97;2.00;;;;;;;;;;5020618;28;20417;-69
2023/11/01 13:29:38;;;;;;;7.22;1.92;;;;;;;;;;5021108;28;20427;-69
2023/11/01 13:32:05;;;;;;;6.25;1.60;;;;;;;;;;5022182;28;20486;-68
2023/11/01 13:34:33;;;;;;;6.70;1.55;;;;;;;;;;5019935;28;20876;-69
2023/11/01 13:37:00;;;;;;;6.20;2.13;;;;;;;;;;5021151;28;20420;-68
2023/11/01 13:39:27;;;;;;;8.45;1.80;;;;;;;;;;5023271;28;20476;-69
2023/11/01 13:41:54;;;;;;;7.80;1.65;;;;;;;;;;5020506;28;20413;-68
2023/11/01 13:44:21;;;;;;;6.50;1.67;;;;;;;;;;5020976;28;20407;-68
2023/11/01 13:46:49;;;;;;;6.65;2.05;;;;;;;;;;5019696;28;20531;-69
2023/11/01 13:49:16;;;;;;;8.68;1.90;;;;;;;;;;5017212;28;20464;-69
2023/11/01 13:51:44;;;;;;;8.40;1.70;;;;;;;;;;5020838;28;20413;-69
2023/11/01 13:54:11;;;;;;;6.20;1.73;;;;;;;;;;5019564;28;20498;-68
2023/11/01 13:56:38;;;;;;;6.33;1.70;;;;;;;;;;5015885;28;20500;-69
2023/11/01 13:59:06;;;;;;;6.32;1.50;;;;;;;;;;5020160;28;20913;-68
2023/11/01 14:01:33;;;;;;;6.95;1.75;;;;;;;;;;5021691;28;20939;-68
2023/11/01 14:04:02;;;;;;;8.38;1.92;;;;;;;;;;5019035;28;20421;-68
2023/11/01 14:06:29;;;;;;;7.40;1.65;;;;;;;;;;5020166;28;20789;-68
2023/11/01 14:08:59;;;;;;;6.90;1.73;;;;;;;;;;5017792;28;20514;-69
2023/11/01 14:11:26;;;;;;;6.07;1.70;;;;;;;;;;5020025;28;20457;-68
2023/11/01 14:13:54;;;;;;;5.90;1.60;;;;;;;;;;5019163;28;20475;-68
2023/11/01 14:16:21;;;;;;;7.33;2.27;;;;;;;;;;5021789;28;20458;-68
2023/11/01 14:18:48;;;;;;;9.20;2.08;;;;;;;;;;5019763;28;20441;-68
2023/11/01 14:21:17;;;;;;;6.00;1.98;;;;;;;;;;5020167;28;21018;-68
2023/11/01 14:23:44;;;;;;;6.73;1.80;;;;;;;;;;5021909;28;20551;-68
2023/11/01 14:26:11;;;;;;;8.57;2.03;;;;;;;;;;5019684;28;20413;-68
2023/11/01 14:28:39;;;;;;;7.50;2.03;;;;;;;;;;5019793;28;20874;-68
2023/11/01 14:31:06;;;;;;;5.35;1.90;;;;;;;;;;5021756;28;20935;-68
2023/11/01 14:33:34;;;;;;;8.07;2.30;;;;;;;;;;5019779;28;20416;-68
2023/11/01 14:36:01;;;;;;;9.30;2.40;;;;;;;;;;5020428;28;20566;-68
2023/11/01 14:38:30;;;;;;;7.80;2.67;;;;;;;;;;5018942;28;20420;-68
2023/11/01 14:40:58;;;;;;;6.53;2.10;;;;;;;;;;5020578;28;20918;-69
2023/11/01 14:43:26;;;;;;;5.47;2.40;;;;;;;;;;5020634;28;20953;-68
2023/11/01 14:45:53;;;;;;;6.93;2.33;;;;;;;;;;5018823;28;20446;-68
2023/11/01 14:48:20;;;;;;;6.40;2.55;;;;;;;;;;5020660;28;20414;-68